Dades meteomassalio
Diari Summary for Octubre 19, 2017 Units:  Metric    English   Both
« Previous Day
Next Day »
Diari Semanal Mensual Anual Personalitzat
  Maxima: Minima: Mijana:
Temperatura: -17.8 °C -13.2 °C -10.4 °C
Rosada: -17.8 °C -14.8 °C -12.7 °C
Humitat: Humidity % 65 % 77 %
Velocitat del vent: 0 km/h 0 km/h 14.3 km/h
Racha vent: 0 km/h - -
Vent:- - SW
Pressio: 0 hPa 34279.9 hPa -
Pluja: 0 mm    
Historical Graphs
 
 
Tabular Data for Octubre 19, 2017
Time Temperature Dew Point Pressure Wind Wind Speed Wind Gust Humidity Rainfall Rate (Hourly) solar Conditions
-17.8 °C -17.8 °C 0 hPa Calm     Humidity % 0 mm SolarRadiationWatts/m^2 W/m2 Conditions
00:00 -10.4 °C -11.4 °C 34303.6 hPa Calm     88 % 0 mm 0.0 W/m2 CLR
00:05 -10.4 °C -11.4 °C 34303.6 hPa Calm     88 % 0 mm 0.0 W/m2 RA
00:10 -10.7 °C -11.8 °C 34303.6 hPa Calm     88 % 0 mm 0.0 W/m2 CLR
00:15 -10.7 °C -11.8 °C 34303.6 hPa Calm     88 % 0 mm 0.0 W/m2 CLR
00:20 -10.7 °C -11.7 °C 34293.4 hPa Calm     89 % 0 mm 0.0 W/m2 CLR
00:25 -11 °C -12 °C 34303.6 hPa Calm     89 % 0 mm 0.0 W/m2 CLR
00:30 -11 °C -12 °C 34303.6 hPa Calm     89 % 0 mm 0.0 W/m2 CLR
00:35 -11 °C -11.9 °C 34303.6 hPa Calm     90 % 0 mm 0.0 W/m2 CLR
00:40 -11 °C -11.9 °C 34293.4 hPa Calm     90 % 0 mm 0.0 W/m2 CLR
00:45 -11 °C -11.9 °C 34293.4 hPa Calm     90 % 0 mm 0.0 W/m2 CLR
00:50 -11 °C -11.9 °C 34293.4 hPa Calm     90 % 0 mm 0.0 W/m2 CLR
00:55 -11.3 °C -12.2 °C 34293.4 hPa Calm     90 % 0 mm 0.0 W/m2 CLR
01:00 -11.3 °C -12.2 °C 34293.4 hPa Calm     90 % 0 mm 0.0 W/m2 CLR
01:05 -11.3 °C -12.1 °C 34293.4 hPa Calm     91 % 0 mm 0.0 W/m2 CLR
01:10 -11.3 °C -12.1 °C 34293.4 hPa Calm     91 % 0 mm 0.0 W/m2 CLR
01:15 -11.3 °C -12.1 °C 34293.4 hPa Calm     91 % 0 mm 0.0 W/m2 CLR
01:20 -11.3 °C -12.1 °C 34303.6 hPa Calm     91 % 0 mm 0.0 W/m2 CLR
01:25 -11.3 °C -12.1 °C 34303.6 hPa Calm     91 % 0 mm 0.0 W/m2 CLR
01:30 -11.3 °C -12.1 °C 34303.6 hPa Calm     91 % 0 mm 0.0 W/m2 CLR
01:35 -11.6 °C -12.4 °C 34303.6 hPa Calm     91 % 0 mm 0.0 W/m2 CLR
01:40 -11.6 °C -12.3 °C 34303.6 hPa Calm     92 % 0 mm 0.0 W/m2 CLR
01:45 -11.6 °C -12.3 °C 34303.6 hPa Calm     92 % 0 mm 0.0 W/m2 CLR
01:50 -11.6 °C -12.3 °C 34303.6 hPa Calm     92 % 0 mm 0.0 W/m2 CLR
01:55 -11.6 °C -12.3 °C 34303.6 hPa Calm     92 % 0 mm 0.0 W/m2 CLR
02:00 -11.6 °C -12.3 °C 34303.6 hPa Calm     92 % 0 mm 0.0 W/m2 CLR
02:05 -11.6 °C -12.3 °C 34303.6 hPa Calm     92 % 0 mm 0.0 W/m2 CLR
02:10 -11.6 °C -12.3 °C 34303.6 hPa Calm     92 % 0 mm 0.0 W/m2 CLR
02:15 -11.6 °C -12.3 °C 34303.6 hPa Calm     92 % 0 mm 0.0 W/m2 CLR
02:20 -11.6 °C -12.4 °C 34303.6 hPa Calm     91 % 0 mm 0.0 W/m2 CLR
02:25 -11.6 °C -12.3 °C 34303.6 hPa Calm     92 % 0 mm 0.0 W/m2 CLR
02:30 -11.6 °C -12.3 °C 34303.6 hPa Calm     92 % 0 mm 0.0 W/m2 CLR
02:35 -11.6 °C -12.3 °C 34303.6 hPa Calm     92 % 0 mm 0.0 W/m2 CLR
02:40 -11.6 °C -12.3 °C 34303.6 hPa Calm     92 % 0 mm 0.0 W/m2 CLR
02:45 -11.9 °C -12.6 °C 34313.7 hPa Calm     92 % 0 mm 0.0 W/m2 CLR
02:50 -11.9 °C -12.6 °C 34303.6 hPa Calm     92 % 0 mm 0.0 W/m2 CLR
02:55 -11.9 °C -12.6 °C 34303.6 hPa Calm     92 % 0 mm 0.0 W/m2 CLR
03:00 -11.9 °C -12.7 °C 34313.7 hPa Calm     91 % 0 mm 0.0 W/m2 CLR
03:05 -11.9 °C -12.7 °C 34313.7 hPa Calm     91 % 0 mm 0.0 W/m2 CLR
03:10 -11.9 °C -12.9 °C 34313.7 hPa Calm     89 % 0 mm 0.0 W/m2 CLR
03:15 -11.9 °C -12.9 °C 34327.3 hPa Calm     89 % 0 mm 0.0 W/m2 CLR
03:20 -11.9 °C -12.9 °C 34327.3 hPa Calm     88 % 0 mm 0.0 W/m2 CLR
03:25 -11.9 °C -13.2 °C 34327.3 hPa Calm     86 % 0 mm 0.0 W/m2 CLR
03:30 -11.9 °C -13.3 °C 34313.7 hPa Calm     85 % 0 mm 0.0 W/m2 CLR
03:35 -11.9 °C -13.3 °C 34313.7 hPa Calm     85 % 0 mm 0.0 W/m2 CLR
03:40 -11.9 °C -13.4 °C 34313.7 hPa Calm     84 % 0 mm 0.0 W/m2 CLR
03:45 -11.9 °C -13.4 °C 34313.7 hPa Calm     84 % 0 mm 0.0 W/m2 CLR
03:50 -11.9 °C -13.3 °C 34327.3 hPa Calm     85 % 0 mm 0.0 W/m2 CLR
03:55 -11.9 °C -13.2 °C 34327.3 hPa Calm     86 % 0 mm 0.0 W/m2 CLR
04:00 -11.9 °C -13.2 °C 34327.3 hPa Calm     86 % 0 mm 0.0 W/m2 CLR
04:05 -11.9 °C -13.1 °C 34327.3 hPa Calm     87 % 0 mm 0.0 W/m2 CLR
04:10 -11.9 °C -13.2 °C 34313.7 hPa Calm     86 % 0 mm 0.0 W/m2 CLR
04:15 -11.9 °C -13.2 °C 34313.7 hPa Calm     86 % 0 mm 0.0 W/m2 CLR
04:20 -11.6 °C -12.9 °C 34313.7 hPa Calm     86 % 0 mm 0.0 W/m2 CLR
04:25 -11.6 °C -13.2 °C 34313.7 hPa Calm     83 % 0 mm 0.0 W/m2 CLR
04:30 -11.6 °C -13.2 °C 34313.7 hPa Calm     82 % 0 mm 0.0 W/m2 CLR
04:35 -11.9 °C -13.7 °C 34313.7 hPa SSE 7.7 km/h 7.7 km/h 81 % 0 mm 0.0 W/m2 CLR
04:40 -11.6 °C -13.2 °C 34303.6 hPa SSE 11.9 km/h 11.9 km/h 83 % 0 mm 0.0 W/m2 CLR
04:45 -11.6 °C -13.1 °C 34313.7 hPa Calm     84 % 0 mm 0.0 W/m2 CLR
04:50 -11.6 °C -13.1 °C 34303.6 hPa SSE 15 km/h 15 km/h 84 % 0 mm 0.0 W/m2 CLR
04:55 -11.6 °C -13.1 °C 34303.6 hPa SSE 15 km/h 15 km/h 84 % 0 mm 0.0 W/m2 CLR
05:00 -11.6 °C -13.1 °C 34303.6 hPa South 10.3 km/h 10.3 km/h 84 % 0 mm 0.0 W/m2 CLR
05:05 -11.6 °C -13.1 °C 34303.6 hPa Calm     84 % 0 mm 0.0 W/m2 CLR
05:10 -11.9 °C -13.4 °C 34303.6 hPa Calm     84 % 0 mm 0.0 W/m2 CLR
05:16 -11.9 °C -13.4 °C 34293.4 hPa Calm     83 % 0 mm 0.0 W/m2 CLR
05:20 -12.2 °C -13.8 °C 34303.6 hPa Calm     83 % 0 mm 0.0 W/m2 CLR
05:25 -12.2 °C -13.7 °C 34293.4 hPa Calm     84 % 0 mm 0.0 W/m2 CLR
05:26 -12.2 °C -13.7 °C 34293.4 hPa Calm     84 % 0 mm 0.0 W/m2 CLR
05:28 -12.2 °C -13.7 °C 34293.4 hPa Calm     84 % 0 mm 0.0 W/m2 CLR
05:29 -12.2 °C -13.7 °C 34303.6 hPa Calm     84 % 0 mm 0.0 W/m2 CLR
05:33 -12.2 °C -13.6 °C 34303.6 hPa Calm     85 % 0 mm 0.0 W/m2 CLR
05:37 -12.2 °C -13.6 °C 34303.6 hPa Calm     85 % 0 mm 0.0 W/m2 CLR
05:38 -12.6 °C -13.8 °C 34303.6 hPa Calm     86 % 0 mm 0.0 W/m2 CLR
05:43 -12.6 °C -13.8 °C 34303.6 hPa Calm     86 % 0 mm 0.0 W/m2 CLR
05:48 -12.6 °C -13.7 °C 34303.6 hPa Calm     87 % 0 mm 0.0 W/m2 CLR
05:53 -12.6 °C -13.7 °C 34303.6 hPa Calm     87 % 0 mm 0.0 W/m2 CLR
05:58 -12.6 °C -13.7 °C 34303.6 hPa Calm     87 % 0 mm 0.0 W/m2 CLR
06:04 -12.6 °C -13.7 °C 34293.4 hPa Calm     87 % 0 mm 0.0 W/m2 CLR
06:09 -12.6 °C -13.7 °C 34293.4 hPa Calm     87 % 0 mm 0.0 W/m2 CLR
06:14 -12.8 °C -14.1 °C 34293.4 hPa Calm     86 % 0 mm 0.0 W/m2 CLR
06:19 -12.8 °C -14.1 °C 34293.4 hPa Calm     86 % 0 mm 0.0 W/m2 CLR
06:24 -12.8 °C -14.1 °C 34293.4 hPa Calm     86 % 0 mm 0.0 W/m2 CLR
06:29 -12.8 °C -14.1 °C 34303.6 hPa Calm     86 % 0 mm 0.0 W/m2 CLR
06:34 -12.8 °C -14 °C 34303.6 hPa Calm     87 % 0 mm 0.0 W/m2 CLR
06:39 -13.2 °C -14.2 °C 34303.6 hPa Calm     88 % 0 mm 0.0 W/m2 CLR
06:44 -13.2 °C -14.2 °C 34303.6 hPa Calm     88 % 0 mm 0.0 W/m2 CLR
06:49 -13.2 °C -14.2 °C 34293.4 hPa Calm     88 % 0 mm 0.0 W/m2 CLR
06:54 -13.2 °C -14.1 °C 34303.6 hPa South 15 km/h 15 km/h 89 % 0 mm 0.0 W/m2 CLR
06:59 -13.2 °C -14.2 °C 34303.6 hPa SSE 15 km/h 15 km/h 88 % 0 mm 0.0 W/m2 CLR
07:04 -13.2 °C -14.2 °C 34303.6 hPa South 9 km/h 9 km/h 88 % 0 mm 0.0 W/m2 CLR
07:09 -13.2 °C -14.3 °C 34303.6 hPa Calm     87 % 0 mm 0.0 W/m2 CLR
07:14 -12.8 °C -14 °C 34293.4 hPa Calm     87 % 0 mm 0.0 W/m2 CLR
07:19 -12.8 °C -14 °C 34293.4 hPa Calm     87 % 0 mm 0.0 W/m2 CLR
07:24 -12.8 °C -14 °C 34303.6 hPa Calm     87 % 0 mm 0.0 W/m2 CLR
07:29 -12.8 °C -13.9 °C 34303.6 hPa Calm     88 % 0 mm 0.0 W/m2 CLR
07:34 -12.8 °C -13.9 °C 34303.6 hPa SSE 15.6 km/h 15.6 km/h 88 % 0 mm 0.0 W/m2 CLR
07:39 -12.6 °C -13.7 °C 34303.6 hPa SSE 15.6 km/h 15.6 km/h 87 % 0 mm 0.0 W/m2 CLR
07:44 -12.6 °C -13.8 °C 34313.7 hPa South 15 km/h 15 km/h 85 % 0 mm 0.0 W/m2 CLR
07:49 -12.6 °C -14.1 °C 34313.7 hPa Calm     83 % 0 mm 0.0 W/m2 CLR
07:54 -12.6 °C -14.3 °C 34313.7 hPa Calm     81 % 0 mm 0.0 W/m2 CLR
07:59 -12.6 °C -14.3 °C 34313.7 hPa SSW 9 km/h 9 km/h 80 % 0 mm 0.0 W/m2 CLR
08:04 -12.6 °C -14.6 °C 34313.7 hPa SSW 18.2 km/h 18.2 km/h 78 % 0 mm 0.0 W/m2 CLR
08:09 -12.6 °C -14.7 °C 34313.7 hPa South 17.9 km/h 17.9 km/h 77 % 0 mm 0.0 W/m2 OVC
08:14 -12.6 °C -14.8 °C 34313.7 hPa SSE 20.9 km/h 20.9 km/h 76 % 0 mm 0.0 W/m2 OVC
08:19 -12.2 °C -14.3 °C 34313.7 hPa Calm     77 % 0 mm 0.0 W/m2 OVC
08:24 -12.2 °C -14.3 °C 34313.7 hPa South 11.9 km/h 11.9 km/h 77 % 0 mm 5.0 W/m2 OVC
08:29 -12.2 °C -14.3 °C 34313.7 hPa South 11.9 km/h 11.9 km/h 77 % 0 mm 9.0 W/m2 BKN
08:34 -12.2 °C -14.5 °C 34313.7 hPa SE 11.9 km/h 11.9 km/h 76 % 0 mm 11.0 W/m2 BKN
08:39 -12.2 °C -14.1 °C 34313.7 hPa Calm     80 % 0 mm 12.0 W/m2 BKN
08:44 -12.2 °C -13.9 °C 34313.7 hPa Calm     81 % 0 mm 16.0 W/m2 BKN
08:49 -12.2 °C -14.1 °C 34327.3 hPa Calm     80 % 0 mm 18.0 W/m2 BKN
08:54 -12.2 °C -14.2 °C 34327.3 hPa Calm     79 % 0 mm 19.0 W/m2 BKN
09:04 -12.2 °C -14.1 °C 34327.3 hPa South 2.6 km/h 2.6 km/h 80 % 0 mm 39.0 W/m2 BKN
09:05 -12.2 °C -14.1 °C 34327.3 hPa Calm   2.1 km/h 80 % 0 mm 39.0 W/m2 BKN
09:10 -12.2 °C -14.2 °C 34337.4 hPa Calm     79 % 0 mm 47.0 W/m2 SCT
09:20 -11.9 °C -14.1 °C 34337.4 hPa Calm   1 km/h 77 % 0 mm 62.0 W/m2 SCT
09:25 -11.9 °C -14.3 °C 34337.4 hPa South 15 km/h 15 km/h 75 % 0 mm 62.0 W/m2 SCT
09:30 -11.9 °C -14.3 °C 34347.6 hPa SSW 17.9 km/h 17.9 km/h 75 % 0 mm 56.0 W/m2 SCT
09:35 -11.9 °C -14.2 °C 34347.6 hPa Calm     76 % 0 mm 47.0 W/m2 SCT
09:40 -11.9 °C -13.9 °C 34347.6 hPa Calm     78 % 0 mm 33.0 W/m2 SCT
09:45 -11.9 °C -13.8 °C 34347.6 hPa Calm     79 % 0 mm 56.0 W/m2 BKN
09:50 -11.9 °C -13.8 °C 34347.6 hPa Calm     79 % 0 mm 83.0 W/m2 SCT
09:55 -11.9 °C -13.8 °C 34347.6 hPa South 9 km/h 9 km/h 79 % 0 mm 113.0 W/m2 FEW
10:00 -11.9 °C -13.9 °C 34347.6 hPa Calm     78 % 0 mm 114.0 W/m2 CLR
10:05 -11.6 °C -13.6 °C 34361.1 hPa Calm     79 % 0 mm 127.0 W/m2 CLR
10:10 -11.6 °C -13.4 °C 34347.6 hPa Calm     80 % 0 mm 123.0 W/m2 CLR
10:15 -11.6 °C -13.6 °C 34347.6 hPa Calm     79 % 0 mm 113.0 W/m2 CLR
10:20 -11.3 °C -13.2 °C 34347.6 hPa Calm     79 % 0 mm 114.0 W/m2 CLR
10:25 -11.3 °C -13.4 °C 34347.6 hPa SW 9 km/h 9 km/h 77 % 0 mm 111.0 W/m2 CLR
10:30 -11.3 °C -13.4 °C 34347.6 hPa Calm     77 % 0 mm 134.0 W/m2 CLR
10:35 -11.3 °C -13.6 °C 34347.6 hPa SW 2.6 km/h 3.9 km/h 76 % 0 mm 142.0 W/m2 CLR
10:40 -11 °C -13.2 °C 34347.6 hPa West 12.9 km/h 12.9 km/h 77 % 0 mm 148.0 W/m2 CLR
10:45 -11 °C -13.3 °C 34347.6 hPa SW 11.9 km/h 11.9 km/h 76 % 0 mm 135.0 W/m2 CLR
10:50 -11 °C -13.3 °C 34347.6 hPa SSW 7.7 km/h 7.7 km/h 76 % 0 mm 190.0 W/m2 CLR
10:55 -10.7 °C -13.1 °C 34361.1 hPa Calm     75 % 0 mm 213.0 W/m2 CLR
11:00 -10.7 °C -13.1 °C 34361.1 hPa Calm     75 % 0 mm 214.0 W/m2 CLR
11:05 -10.7 °C -13.1 °C 34361.1 hPa Calm   1 km/h 75 % 0 mm 186.0 W/m2 CLR
11:10 -10.4 °C -12.9 °C 34361.1 hPa Calm     74 % 0 mm 193.0 W/m2 CLR
11:15 -10.4 °C -12.9 °C 34361.1 hPa SSW 9 km/h 9 km/h 74 % 0 mm 190.0 W/m2 CLR
11:20 -10.4 °C -13 °C 34361.1 hPa SSW 15 km/h 15 km/h 73 % 0 mm 186.0 W/m2 CLR
11:25 -10.4 °C -13 °C 34361.1 hPa Calm     73 % 0 mm 190.0 W/m2 CLR
11:30 -10.7 °C -13.2 °C 34361.1 hPa SW 10.3 km/h 10.3 km/h 74 % 0 mm 221.0 W/m2 CLR
11:35 -10.4 °C -12.9 °C 34361.1 hPa SW 23.3 km/h 23.3 km/h 74 % 0 mm 304.0 W/m2 CLR
11:40 -10.4 °C -12.9 °C 34361.1 hPa SW 20.9 km/h 20.9 km/h 74 % 0 mm 318.0 W/m2 CLR
11:45 -10.1 °C -12.7 °C 34361.1 hPa West 15.6 km/h 15.6 km/h 73 % 0 mm 422.0 W/m2 CLR
11:50 -10.1 °C -12.8 °C 34361.1 hPa WSW 29.8 km/h 29.8 km/h 72 % 0 mm 327.0 W/m2 CLR
11:55 -10.1 °C -12.8 °C 34347.6 hPa SW 23.8 km/h 23.8 km/h 72 % 0 mm 520.0 W/m2 CLR
12:00 -9.8 °C -12.7 °C 34347.6 hPa SW 17.9 km/h 17.9 km/h 71 % 0 mm 501.0 W/m2 CLR
12:05 -9.8 °C -12.6 °C 34347.6 hPa SW 20.9 km/h 20.9 km/h 72 % 0 mm 519.0 W/m2 CLR
12:10 -9.8 °C -12.7 °C 34347.6 hPa SW 23.8 km/h 23.8 km/h 71 % 0 mm 211.0 W/m2 CLR
12:15 -9.8 °C -12.4 °C 34347.6 hPa Calm     73 % 0 mm 578.0 W/m2 CLR
12:20 -9.8 °C -12.7 °C 34347.6 hPa West 6 km/h   71 % 0 mm 422.0 W/m2 CLR
12:25 -9.4 °C -12.3 °C 34347.6 hPa West 23.8 km/h 23.8 km/h 71 % 0 mm 612.0 W/m2 CLR
12:30 -9.4 °C -12.3 °C 34347.6 hPa SW 6 km/h   71 % 0 mm 353.0 W/m2 CLR
12:35 -9.4 °C -12.4 °C 34347.6 hPa WSW 15.6 km/h 15.6 km/h 70 % 0 mm 454.0 W/m2 CLR
12:40 -9.4 °C -12.4 °C 34347.6 hPa Calm     70 % 0 mm 334.0 W/m2 CLR
12:45 -9.4 °C -12.2 °C 34347.6 hPa Calm     72 % 0 mm 308.0 W/m2 CLR
12:50 -9.4 °C -12.2 °C 34347.6 hPa West 11.9 km/h 11.9 km/h 72 % 0 mm 271.0 W/m2 CLR
12:55 -9.4 °C -12.2 °C 34347.6 hPa West 17.9 km/h 17.9 km/h 72 % 0 mm 283.0 W/m2 CLR
13:00 -9.4 °C -12.2 °C 34347.6 hPa SW 9 km/h   72 % 0 mm 322.0 W/m2 CLR
13:05 -9.4 °C -12.2 °C 34347.6 hPa SW 23.8 km/h 23.8 km/h 72 % 0 mm 362.0 W/m2 CLR
13:10 -9.4 °C -12.3 °C 34337.4 hPa WSW 15.6 km/h 15.6 km/h 71 % 0 mm 343.0 W/m2 CLR
13:15 -9.1 °C -11.7 °C 34337.4 hPa WSW 29.8 km/h 29.8 km/h 74 % 0 mm 396.0 W/m2 CLR
13:20 -9.4 °C -12.2 °C 34337.4 hPa WSW 11.9 km/h 11.9 km/h 72 % 0 mm 346.0 W/m2 CLR
13:25 -9.1 °C -11.9 °C 34337.4 hPa SW 17.9 km/h 17.9 km/h 72 % 0 mm 394.0 W/m2 CLR
13:30 -9.1 °C -11.9 °C 34337.4 hPa WSW 23.8 km/h 23.8 km/h 72 % 0 mm 457.0 W/m2 CLR
13:35 -9.1 °C -11.9 °C 34337.4 hPa WSW 28.5 km/h 28.5 km/h 72 % 0 mm 257.0 W/m2 CLR
13:40 -9.1 °C -12.1 °C 34337.4 hPa West 20.9 km/h 20.9 km/h 71 % 0 mm 244.0 W/m2 CLR
13:45 -9.4 °C -12.2 °C 34337.4 hPa WSW 17.9 km/h 17.9 km/h 72 % 0 mm 246.0 W/m2 CLR
13:50 -9.1 °C -11.9 °C 34337.4 hPa WNW 26.9 km/h 26.9 km/h 72 % 0 mm 253.0 W/m2 CLR
13:55 -9.4 °C -12.1 °C 34327.3 hPa SW 23.8 km/h 23.8 km/h 73 % 0 mm 283.0 W/m2 CLR
14:00 -9.1 °C -11.7 °C 34327.3 hPa West 29.8 km/h 29.8 km/h 74 % 0 mm 308.0 W/m2 CLR
14:06 -9.1 °C -11.9 °C 34313.7 hPa West 15 km/h 15 km/h 72 % 0 mm 283.0 W/m2 CLR
14:11 -9.4 °C -12.2 °C 34327.3 hPa WSW 20.9 km/h 20.9 km/h 72 % 0 mm 304.0 W/m2 CLR
14:16 -9.1 °C -11.9 °C 34327.3 hPa SW 29.8 km/h 29.8 km/h 72 % 0 mm 251.0 W/m2 CLR
14:21 -9.1 °C -12.1 °C 34327.3 hPa West 23.8 km/h 23.8 km/h 71 % 0 mm 185.0 W/m2 CLR
14:26 -9.1 °C -11.8 °C 34327.3 hPa WSW 15 km/h 15 km/h 73 % 0 mm 192.0 W/m2 CLR
14:31 -9.1 °C -11.8 °C 34313.7 hPa WSW 38.8 km/h 38.8 km/h 73 % 0 mm 192.0 W/m2 CLR
14:36 -9.1 °C -11.8 °C 34313.7 hPa WSW 29.8 km/h 29.8 km/h 73 % 0 mm 195.0 W/m2 CLR
14:41 -9.4 °C -12.1 °C 34313.7 hPa WSW 9 km/h 10.3 km/h 73 % 0 mm 207.0 W/m2 CLR
14:46 -9.1 °C -12.1 °C 34303.6 hPa WSW 29.8 km/h 29.8 km/h 71 % 0 mm 251.0 W/m2 CLR
14:51 -9.1 °C -12.1 °C 34303.6 hPa West 35.7 km/h 35.7 km/h 71 % 0 mm 234.0 W/m2 CLR
14:56 -9.1 °C -12.1 °C 34303.6 hPa SW 29.8 km/h 29.8 km/h 71 % 0 mm 202.0 W/m2 CLR
15:01 -9.1 °C -12.1 °C 34313.7 hPa WSW 26.9 km/h 26.9 km/h 71 % 0 mm 172.0 W/m2 CLR
15:06 -9.1 °C -12.1 °C 34313.7 hPa WSW 29.8 km/h 29.8 km/h 71 % 0 mm 171.0 W/m2 CLR
15:11 -9.1 °C -12.1 °C 34313.7 hPa SW 9 km/h   71 % 0 mm 172.0 W/m2 CLR
15:16 -9.1 °C -12.1 °C 34313.7 hPa West 15.6 km/h 15.6 km/h 71 % 0 mm 160.0 W/m2 CLR
15:21 -9.1 °C -12.1 °C 34313.7 hPa West 20.9 km/h 20.9 km/h 71 % 0 mm 149.0 W/m2 CLR
15:22 -9.1 °C -12.1 °C 34313.7 hPa SW 9 km/h 9 km/h 71 % 0 mm 142.0 W/m2 CLR
15:27 -9.1 °C -11.9 °C 34313.7 hPa West 9 km/h 9 km/h 72 % 0 mm 121.0 W/m2 CLR
15:32 -9.4 °C -12.3 °C 34313.7 hPa West 17.9 km/h 17.9 km/h 71 % 0 mm 97.0 W/m2 CLR
15:37 -9.4 °C -12.2 °C 34313.7 hPa Calm     72 % 0 mm 90.0 W/m2 CLR
15:42 -9.4 °C -12.2 °C 34313.7 hPa WSW 20.9 km/h 20.9 km/h 72 % 0 mm 105.0 W/m2 CLR
15:47 -9.4 °C -12.2 °C 34313.7 hPa SW 9 km/h 9 km/h 72 % 0 mm 121.0 W/m2 CLR
15:52 -9.1 °C -11.9 °C 34303.6 hPa Calm     72 % 0 mm 155.0 W/m2 CLR
15:57 -9.1 °C -11.9 °C 34303.6 hPa WSW 15 km/h 15 km/h 72 % 0 mm 207.0 W/m2 CLR
16:02 -8.8 °C -11.8 °C 34303.6 hPa West 9 km/h   71 % 0 mm 258.0 W/m2 CLR
16:07 -8.8 °C -11.8 °C 34303.6 hPa WSW 20.8 km/h 20.8 km/h 71 % 0 mm 276.0 W/m2 CLR
16:12 -8.8 °C -11.9 °C 34303.6 hPa WSW 20.9 km/h 20.9 km/h 70 % 0 mm 313.0 W/m2 CLR
16:17 -8.8 °C -11.8 °C 34303.6 hPa WSW 25.9 km/h 25.9 km/h 71 % 0 mm 229.0 W/m2 CLR
16:22 -8.8 °C -12 °C 34303.6 hPa WSW 29.8 km/h 29.8 km/h 69 % 0 mm 239.0 W/m2 CLR
16:27 -8.8 °C -12 °C 34303.6 hPa WSW 32.8 km/h 32.8 km/h 69 % 0 mm 220.0 W/m2 CLR
16:32 -8.8 °C -12 °C 34293.4 hPa WSW 32.8 km/h 32.8 km/h 69 % 0 mm 218.0 W/m2 CLR
16:37 -8.8 °C -12 °C 34293.4 hPa West 28.5 km/h 28.5 km/h 69 % 0 mm 216.0 W/m2 CLR
16:42 -8.8 °C -12.1 °C 34293.4 hPa WSW 32.8 km/h 32.8 km/h 68 % 0 mm 260.0 W/m2 CLR
16:47 -8.5 °C -11.8 °C 34293.4 hPa SW 29.8 km/h 29.8 km/h 68 % 0 mm 246.0 W/m2 CLR
16:48 -8.5 °C -11.8 °C 34293.4 hPa SW 31.1 km/h 31.1 km/h 68 % 0 mm 239.0 W/m2 CLR
16:53 -8.5 °C -12.1 °C 34293.4 hPa West 33.6 km/h 33.6 km/h 66 % 0 mm 236.0 W/m2 CLR
16:58 -8.5 °C -11.9 °C 34293.4 hPa WSW 32.8 km/h 32.8 km/h 67 % 0 mm 234.0 W/m2 CLR
17:03 -8.5 °C -11.9 °C 34293.4 hPa WSW 10.3 km/h 10.3 km/h 67 % 0 mm 218.0 W/m2 CLR
17:08 -8.5 °C -11.8 °C 34279.9 hPa SW 11.9 km/h 11.9 km/h 68 % 0 mm 141.0 W/m2 CLR
17:13 -8.8 °C -12.3 °C 34279.9 hPa SSW 35.7 km/h 35.7 km/h 66 % 0 mm 100.0 W/m2 CLR
17:18 -8.8 °C -12.3 °C 34279.9 hPa SW 35.7 km/h 35.7 km/h 66 % 0 mm 102.0 W/m2 CLR
17:23 -8.8 °C -12.2 °C 34279.9 hPa SW 29.8 km/h 29.8 km/h 67 % 0 mm 105.0 W/m2 CLR
17:28 -8.8 °C -12.1 °C 34279.9 hPa West 41.7 km/h 41.7 km/h 68 % 0 mm 98.0 W/m2 CLR
17:34 -8.8 °C -12.1 °C 34293.4 hPa SW 35.7 km/h 35.7 km/h 68 % 0 mm 90.0 W/m2 CLR
17:39 -8.8 °C -12.1 °C 34279.9 hPa WSW 35.7 km/h 35.7 km/h 68 % 0 mm 74.0 W/m2 CLR
17:44 -8.8 °C -12.2 °C 34279.9 hPa SW 26.9 km/h 26.9 km/h 67 % 0 mm 84.0 W/m2 FEW
17:49 -8.8 °C -12.2 °C 34279.9 hPa SW 23.8 km/h 23.8 km/h 67 % 0 mm 63.0 W/m2 FEW
17:54 -8.8 °C -12.3 °C 34279.9 hPa WSW 35.7 km/h 35.7 km/h 66 % 0 mm 46.0 W/m2 FEW
17:59 -8.8 °C -12.3 °C 34279.9 hPa WSW 29.8 km/h 29.8 km/h 66 % 0 mm 47.0 W/m2 SCT
18:04 -8.8 °C -12.2 °C 34293.4 hPa West 20.9 km/h 20.9 km/h 67 % 0 mm 42.0 W/m2 SCT
18:09 -8.8 °C -12.2 °C 34293.4 hPa WSW 23.8 km/h 23.8 km/h 67 % 0 mm 35.0 W/m2 BKN
18:14 -8.8 °C -12.2 °C 34293.4 hPa Calm     67 % 0 mm 32.0 W/m2 BKN
18:19 -8.8 °C -12.3 °C 34293.4 hPa SSW 23.8 km/h 23.8 km/h 66 % 0 mm 35.0 W/m2 BKN
18:24 -8.8 °C -12.2 °C 34303.6 hPa WSW 29.8 km/h 29.8 km/h 67 % 0 mm 35.0 W/m2 BKN
18:29 -8.8 °C -12.3 °C 34293.4 hPa WSW 26.9 km/h 26.9 km/h 66 % 0 mm 42.0 W/m2 BKN
18:34 -8.8 °C -12.2 °C 34303.6 hPa SW 25.9 km/h 25.9 km/h 67 % 0 mm 46.0 W/m2 SCT
18:39 -8.8 °C -12.2 °C 34303.6 hPa WSW 29.8 km/h 29.8 km/h 67 % 0 mm 40.0 W/m2 BKN
18:44 -8.8 °C -12.3 °C 34303.6 hPa SW 26.9 km/h 26.9 km/h 66 % 0 mm 26.0 W/m2 BKN
18:49 -8.8 °C -12.3 °C 34303.6 hPa SW 26.9 km/h 26.9 km/h 66 % 0 mm 23.0 W/m2 BKN
18:54 -8.8 °C -12.3 °C 34303.6 hPa SW 20.9 km/h 20.9 km/h 66 % 0 mm 18.0 W/m2 BKN
18:59 -8.8 °C -12.5 °C 34303.6 hPa WSW 29.8 km/h 29.8 km/h 65 % 0 mm 14.0 W/m2 BKN
19:04 -8.8 °C -12.3 °C 34303.6 hPa WSW 29.8 km/h 29.8 km/h 66 % 0 mm 11.0 W/m2 BKN
19:09 -8.8 °C -12.3 °C 34303.6 hPa WSW 29.8 km/h 29.8 km/h 66 % 0 mm 5.0 W/m2 OVC
19:14 -8.8 °C -12.3 °C 34313.7 hPa WSW 29.8 km/h 29.8 km/h 66 % 0 mm 0.0 W/m2 OVC
19:19 -8.8 °C -12.3 °C 34313.7 hPa WSW 32.8 km/h 32.8 km/h 66 % 0 mm 0.0 W/m2 OVC
19:24 -8.8 °C -12.3 °C 34313.7 hPa WSW 26.9 km/h 26.9 km/h 66 % 0 mm 0.0 W/m2 CLR
19:29 -9.1 °C -12.7 °C 34313.7 hPa WSW 29.8 km/h 29.8 km/h 66 % 0 mm 0.0 W/m2 CLR
19:34 -8.8 °C -12.5 °C 34327.3 hPa West 23.8 km/h 23.8 km/h 65 % 0 mm 0.0 W/m2 CLR
19:39 -9.1 °C -12.8 °C 34327.3 hPa SW 29.8 km/h 29.8 km/h 65 % 0 mm 0.0 W/m2 CLR
19:40 -9.1 °C -12.8 °C 34327.3 hPa WSW 29.8 km/h 29.8 km/h 65 % 0 mm 0.0 W/m2 CLR
19:45 -9.1 °C -12.7 °C 34327.3 hPa WSW 29.8 km/h 29.8 km/h 66 % 0 mm 0.0 W/m2 CLR
19:50 -9.1 °C -12.7 °C 34327.3 hPa West 29.8 km/h 29.8 km/h 66 % 0 mm 0.0 W/m2 CLR
19:55 -9.1 °C -12.6 °C 34327.3 hPa West 3.1 km/h 3.1 km/h 67 % 0 mm 0.0 W/m2 CLR
20:00 -9.1 °C -12.4 °C 34327.3 hPa SW 26.9 km/h 26.9 km/h 68 % 0 mm 0.0 W/m2 CLR
20:05 -9.1 °C -12.4 °C 34327.3 hPa WSW 29.8 km/h 29.8 km/h 68 % 0 mm 0.0 W/m2 CLR
20:10 -9.1 °C -12.3 °C 34327.3 hPa WSW 38.8 km/h 38.8 km/h 69 % 0 mm 0.0 W/m2 CLR
20:15 -9.1 °C -12.4 °C 34337.4 hPa WSW 33.6 km/h 33.6 km/h 68 % 0 mm 0.0 W/m2 CLR
20:20 -9.1 °C -12.4 °C 34337.4 hPa WSW 29.8 km/h 29.8 km/h 68 % 0 mm 0.0 W/m2 CLR
20:25 -9.1 °C -12.4 °C 34337.4 hPa WSW 32.8 km/h 32.8 km/h 68 % 0 mm 0.0 W/m2 CLR
20:35 -9.1 °C -12.4 °C 34337.4 hPa WSW 35.7 km/h 35.7 km/h 68 % 0 mm 0.0 W/m2 CLR
20:40 -9.1 °C -12.4 °C 34337.4 hPa WSW 32.8 km/h 32.8 km/h 68 % 0 mm 0.0 W/m2 CLR
20:45 -9.1 °C -12.3 °C 34337.4 hPa SW 29.8 km/h 29.8 km/h 69 % 0 mm 0.0 W/m2 CLR
20:50 -9.1 °C -12.3 °C 34337.4 hPa SW 29.8 km/h 29.8 km/h 69 % 0 mm 0.0 W/m2 CLR
20:55 -9.1 °C -12.3 °C 34337.4 hPa SW 36.2 km/h 36.2 km/h 69 % 0 mm 0.0 W/m2 CLR
21:00 -9.1 °C -12.3 °C 34337.4 hPa WSW 29.8 km/h 29.8 km/h 69 % 0 mm 0.0 W/m2 CLR
21:05 -9.1 °C -12.3 °C 34337.4 hPa SW 29.8 km/h 29.8 km/h 69 % 0 mm 0.0 W/m2 CLR
21:10 -9.1 °C -12.3 °C 34337.4 hPa SW 32.8 km/h 32.8 km/h 69 % 0 mm 0.0 W/m2 CLR
21:15 -9.1 °C -12.3 °C 34337.4 hPa WSW 29.8 km/h 29.8 km/h 69 % 0 mm 0.0 W/m2 CLR
21:20 -9.1 °C -12.2 °C 34337.4 hPa WSW 44.7 km/h 44.7 km/h 70 % 0 mm 0.0 W/m2 CLR
21:25 -9.1 °C -12.2 °C 34337.4 hPa SW 38.8 km/h 38.8 km/h 70 % 0 mm 0.0 W/m2 CLR
21:30 -9.1 °C -12.2 °C 34337.4 hPa WSW 38.8 km/h 38.8 km/h 70 % 0 mm 0.0 W/m2 CLR
21:35 -9.1 °C -12.2 °C 34337.4 hPa SSW 35.7 km/h 35.7 km/h 70 % 0 mm 0.0 W/m2 CLR
21:40 -9.1 °C -12.1 °C 34347.6 hPa SW 38.8 km/h 38.8 km/h 71 % 0 mm 0.0 W/m2 CLR
21:45 -9.1 °C -12.1 °C 34347.6 hPa WSW 41.4 km/h 41.4 km/h 71 % 0 mm 0.0 W/m2 CLR
21:50 -9.1 °C -12.1 °C 34347.6 hPa WSW 41.7 km/h 41.7 km/h 71 % 0 mm 0.0 W/m2 CLR
21:55 -9.1 °C -12.1 °C 34347.6 hPa SW 41.7 km/h 41.7 km/h 71 % 0 mm 0.0 W/m2 CLR
22:00 -9.1 °C -12.1 °C 34347.6 hPa SW 41.7 km/h 41.7 km/h 71 % 0 mm 0.0 W/m2 CLR
22:05 -9.1 °C -12.1 °C 34347.6 hPa SSW 41.7 km/h 41.7 km/h 71 % 0 mm 0.0 W/m2 CLR
22:10 -9.1 °C -11.9 °C 34347.6 hPa SSW 29.8 km/h 29.8 km/h 72 % 0 mm 0.0 W/m2 CLR
22:15 -9.1 °C -11.9 °C 34361.1 hPa SSW 33.6 km/h 33.6 km/h 72 % 0 mm 0.0 W/m2 CLR
22:20 -9.1 °C -11.9 °C 34361.1 hPa SW 29.8 km/h 29.8 km/h 72 % 0 mm 0.0 W/m2 CLR
22:25 -9.1 °C -11.9 °C 34361.1 hPa SSW 35.7 km/h 35.7 km/h 72 % 0 mm 0.0 W/m2 CLR
22:30 -9.1 °C -11.9 °C 34361.1 hPa SW 33.6 km/h 33.6 km/h 72 % 0 mm 0.0 W/m2 CLR
22:35 -9.1 °C -11.9 °C 34361.1 hPa SW 31.1 km/h 31.1 km/h 72 % 0 mm 0.0 W/m2 CLR
22:40 -9.1 °C -11.9 °C 34371.3 hPa SW 20.9 km/h 20.9 km/h 72 % 0 mm 0.0 W/m2 CLR
22:45 -9.1 °C -11.9 °C 34371.3 hPa SW 28.5 km/h 28.5 km/h 72 % 0 mm 0.0 W/m2 CLR
22:50 -9.1 °C -11.9 °C 34371.3 hPa SW 26.9 km/h 26.9 km/h 72 % 0 mm 0.0 W/m2 CLR
22:55 -9.1 °C -11.9 °C 34384.8 hPa SW 23.8 km/h 23.8 km/h 72 % 0 mm 0.0 W/m2 CLR
23:00 -9.1 °C -11.9 °C 34384.8 hPa SSW 26.9 km/h 26.9 km/h 72 % 0 mm 0.0 W/m2 CLR
23:05 -9.1 °C -11.9 °C 34384.8 hPa SSW 29.8 km/h 29.8 km/h 72 % 0 mm 0.0 W/m2 CLR
23:10 -9.1 °C -12.1 °C 34384.8 hPa SSW 23.8 km/h 23.8 km/h 71 % 0 mm 0.0 W/m2 CLR
23:15 -9.1 °C -12.1 °C 34384.8 hPa SSW 17.9 km/h 17.9 km/h 71 % 0 mm 0.0 W/m2 CLR
23:20 -9.1 °C -12.2 °C 34384.8 hPa SW 26.9 km/h 26.9 km/h 70 % 0 mm 0.0 W/m2 CLR
23:25 -9.1 °C -12.1 °C 34384.8 hPa SW 20.8 km/h 20.8 km/h 71 % 0 mm 0.0 W/m2 CLR
23:30 -9.1 °C -12.2 °C 34395 hPa SW 29.8 km/h 29.8 km/h 70 % 0 mm 0.0 W/m2 CLR
23:35 -9.1 °C -12.2 °C 34384.8 hPa SW 26.9 km/h 26.9 km/h 70 % 0 mm 0.0 W/m2 CLR
23:40 -9.1 °C -12.2 °C 34395 hPa SSW 20.9 km/h 20.9 km/h 70 % 0 mm 0.0 W/m2 CLR
23:45 -9.1 °C -12.3 °C 34395 hPa SW 28.5 km/h 28.5 km/h 69 % 0 mm 0.0 W/m2 CLR
23:50 -9.1 °C -12.3 °C 34395 hPa WSW 29.8 km/h 29.8 km/h 69 % 0 mm 0.0 W/m2 CLR
23:55 -9.1 °C -12.3 °C 34395 hPa SSW 29.8 km/h 29.8 km/h 69 % 0 mm 0.0 W/m2 CLR
Lo Temps de Massalio
Compliments of Weather Underground - 1.25 mb